Time;durP1;ratioP1;P1;durP2;ratioP2;P2;SDS_P1;SDS_P2;PMS_P1;PMS_P2;Temp;Humidity;BMP_temperature;BMP_pressure;BME280_temperature;BME280_humidity;BME280_pressure;Samples;Min_cycle;Max_cycle;Signal;HPM_P1;HPM_P2
2022/07/15 00:02:07;;;;;;;8.08;4.75;;;;;;;21.43;100.00;99138.77;1716036;81;21074;-74
2022/07/15 00:04:35;;;;;;;5.92;4.22;;;;;;;21.39;100.00;99133.16;1713278;81;21050;-70
2022/07/15 00:07:02;;;;;;;7.67;4.10;;;;;;;21.45;100.00;99131.35;1740266;80;21022;-68
2022/07/15 00:12:15;;;;;;;10.13;4.87;;;;;;;21.39;100.00;99124.76;1746085;80;21118;-73
2022/07/15 00:14:44;;;;;;;6.37;4.03;;;;;;;21.33;100.00;99126.98;1690555;84;21034;-69
2022/07/15 00:17:10;;;;;;;6.03;4.35;;;;;;;21.34;100.00;99129.99;1745317;80;21355;-73
2022/07/15 00:19:37;;;;;;;8.48;4.45;;;;;;;21.34;100.00;99122.98;1743385;80;21093;-74
2022/07/15 00:22:03;;;;;;;8.88;3.95;;;;;;;21.25;100.00;99123.41;1741463;80;21045;-71
2022/07/15 00:24:42;;;;;;;10.70;4.28;;;;;;;21.21;100.00;99117.80;1740683;80;21123;-73
2022/07/15 00:27:11;;;;;;;6.42;4.05;;;;;;;21.18;100.00;99119.20;1718901;82;21087;-73
2022/07/15 00:29:50;;;;;;;9.55;3.80;;;;;;;21.13;100.00;99115.63;1732044;80;21017;-72
2022/07/15 00:32:19;;;;;;;5.92;3.77;;;;;;;21.14;100.00;99109.41;1741695;80;21022;-75
2022/07/15 00:34:53;;;;;;;11.55;3.95;;;;;;;21.13;100.00;99108.63;1743430;80;21085;-72
2022/07/15 00:40:07;;;;;;;7.25;4.15;;;;;;;21.11;100.00;99111.61;1709460;82;21018;-72
2022/07/15 00:42:43;;;;;;;6.28;4.12;;;;;;;21.10;100.00;99102.41;1742410;80;21029;-73
2022/07/15 00:45:16;;;;;;;6.95;3.90;;;;;;;21.08;100.00;99101.23;1734381;81;21043;-75
2022/07/15 00:47:56;;;;;;;5.90;3.80;;;;;;;21.01;100.00;99102.03;1734167;80;21038;-73
2022/07/15 00:50:35;;;;;;;5.78;3.87;;;;;;;21.11;100.00;99105.42;1742671;80;22011;-75
2022/07/15 00:53:18;;;;;;;6.40;3.60;;;;;;;21.12;100.00;99100.01;1713073;82;21017;-73
2022/07/15 00:55:49;;;;;;;5.12;3.10;;;;;;;21.13;100.00;99098.02;1705424;81;21013;-75
2022/07/15 00:58:20;;;;;;;7.58;3.60;;;;;;;21.10;100.00;99101.63;1716947;82;21012;-76
2022/07/15 01:00:49;;;;;;;5.28;2.85;;;;;;;21.08;100.00;99102.63;1737468;80;21027;-71
2022/07/15 01:03:19;;;;;;;4.42;3.95;;;;;;;21.11;100.00;99099.02;1729740;80;21034;-72
2022/07/15 01:05:52;;;;;;;5.72;3.70;;;;;;;21.26;100.00;99106.19;1731573;80;21074;-71
2022/07/15 01:08:19;;;;;;;5.12;3.42;;;;;;;21.32;100.00;99105.19;1727771;81;21121;-73
2022/07/15 01:10:47;;;;;;;5.65;3.70;;;;;;;21.26;100.00;99104.79;1729579;82;21140;-75
2022/07/15 01:13:15;;;;;;;3.87;3.17;;;;;;;21.31;100.00;99097.97;1729145;81;21069;-74
2022/07/15 01:15:43;;;;;;;8.35;3.30;;;;;;;21.33;100.00;99098.96;1723833;81;21154;-74
2022/07/15 01:18:10;;;;;;;5.35;4.40;;;;;;;21.39;100.00;99098.14;1724509;81;21015;-75
2022/07/15 01:20:48;;;;;;;5.90;3.92;;;;;;;21.39;100.00;99098.77;1727135;81;21566;-74
2022/07/15 01:26:12;;;;;;;5.12;3.42;;;;;;;21.39;100.00;99091.14;1702657;82;20999;-73
2022/07/15 01:28:46;;;;;;;5.28;3.52;;;;;;;21.46;100.00;99101.52;1695148;82;21063;-74
2022/07/15 01:31:13;;;;;;;4.62;3.30;;;;;;;21.49;100.00;99095.73;1719080;82;21014;-74
2022/07/15 01:33:48;;;;;;;4.70;3.17;;;;;;;21.44;100.00;99101.75;1726560;81;21518;-73
2022/07/15 01:36:31;;;;;;;6.53;3.65;;;;;;;21.42;100.00;99098.55;1709636;81;21039;-72
2022/07/15 01:39:12;;;;;;;5.17;3.05;;;;;;;21.38;100.00;99096.56;1729239;81;21066;-74
2022/07/15 01:41:41;;;;;;;5.97;3.90;;;;;;;21.43;100.00;99098.76;1730698;81;21106;-76
2022/07/15 01:44:24;;;;;;;5.17;3.33;;;;;;;21.40;100.00;99098.95;1731634;80;21135;-72
2022/07/15 01:46:53;;;;;;;3.75;3.42;;;;;;;21.43;100.00;99100.16;1730803;80;21780;-74
2022/07/15 01:49:29;;;;;;;4.83;3.35;;;;;;;21.44;100.00;99093.34;1734701;82;21026;-76
2022/07/15 01:52:02;;;;;;;4.42;3.40;;;;;;;21.47;100.00;99103.73;1733290;80;21038;-75
2022/07/15 01:54:30;;;;;;;6.35;3.45;;;;;;;21.51;100.00;99105.94;1730032;82;21570;-74
2022/07/15 01:57:06;;;;;;;4.78;3.10;;;;;;;21.54;100.00;99103.72;1730039;81;21059;-73
2022/07/15 01:59:50;;;;;;;4.47;2.80;;;;;;;21.56;100.00;99099.91;1713101;81;21081;-73
2022/07/15 02:02:26;;;;;;;4.67;3.47;;;;;;;21.61;100.00;99101.49;1734259;81;20965;-73
2022/07/15 02:04:54;;;;;;;3.98;3.58;;;;;;;21.58;100.00;99098.88;1706384;82;21058;-71
2022/07/15 02:07:30;;;;;;;3.60;2.95;;;;;;;21.58;100.00;99091.88;1719295;80;21047;-73
2022/07/15 02:10:04;;;;;;;7.78;3.70;;;;;;;21.61;100.00;99101.49;1718383;81;21035;-74
2022/07/15 02:12:37;;;;;;;8.28;3.20;;;;;;;21.60;100.00;99098.47;1700536;82;21523;-73
2022/07/15 02:15:09;;;;;;;3.20;2.85;;;;;;;21.61;100.00;99094.48;1713697;81;21027;-74
2022/07/15 02:17:41;;;;;;;3.33;3.02;;;;;;;21.62;100.00;99089.06;1718317;81;21194;-73
2022/07/15 02:20:10;;;;;;;4.17;3.10;;;;;;;21.64;100.00;99090.27;1716349;81;21571;-72
2022/07/15 02:22:37;;;;;;;8.60;3.58;;;;;;;21.65;100.00;99090.45;1716214;81;20983;-74
2022/07/15 02:25:04;;;;;;;4.15;3.05;;;;;;;21.68;100.00;99088.86;1716724;81;21004;-73
2022/07/15 02:27:32;;;;;;;4.05;3.08;;;;;;;21.68;100.00;99083.25;1723175;82;21078;-73
2022/07/15 02:29:59;;;;;;;5.28;3.33;;;;;;;21.72;100.00;99089.62;1721380;81;21078;-75
2022/07/15 02:32:33;;;;;;;6.30;3.30;;;;;;;21.74;100.00;99085.81;1715869;81;21090;-73
2022/07/15 02:35:09;;;;;;;10.75;4.20;;;;;;;21.77;100.00;99084.19;1712614;82;21348;-74
2022/07/15 02:37:41;;;;;;;3.70;3.33;;;;;;;21.80;100.00;99081.22;1718027;80;21059;-74
2022/07/15 02:40:10;;;;;;;4.83;3.05;;;;;;;21.81;100.00;99071.00;1732967;80;21038;-68
2022/07/15 02:42:37;;;;;;;3.92;3.37;;;;;;;21.84;100.00;99073.58;1727084;80;21548;-75
2022/07/15 02:45:07;;;;;;;5.80;3.47;;;;;;;21.83;100.00;99072.80;1720402;80;21825;-73
2022/07/15 02:47:34;;;;;;;4.72;3.55;;;;;;;21.86;100.00;99064.96;1728365;80;21037;-73
2022/07/15 02:50:05;;;;;;;4.47;3.25;;;;;;;21.91;100.00;99067.12;1729435;80;21031;-75
2022/07/15 02:52:32;;;;;;;4.53;3.02;;;;;;;21.95;100.00;99069.32;1731157;80;21051;-74
2022/07/15 02:54:59;;;;;;;5.28;3.17;;;;;;;21.98;100.00;99074.11;1733732;80;21002;-73
2022/07/15 02:57:26;;;;;;;5.45;3.00;;;;;;;21.99;100.00;99078.52;1719852;81;21483;-74
2022/07/15 02:59:53;;;;;;;7.95;2.98;;;;;;;22.00;100.00;99079.52;1715573;81;21074;-72
2022/07/15 03:02:27;;;;;;;3.15;2.75;;;;;;;22.00;100.00;99082.91;1712189;81;21526;-73
2022/07/15 03:04:54;;;;;;;6.10;2.72;;;;;;;22.01;100.00;99081.10;1719241;81;21023;-72
2022/07/15 03:07:21;;;;;;;3.27;2.65;;;;;;;22.05;100.00;99078.87;1731722;80;21136;-74
2022/07/15 03:09:52;;;;;;;6.40;3.40;;;;;;;22.05;100.00;99078.28;1738688;82;21491;-72
2022/07/15 03:12:25;;;;;;;4.40;2.77;;;;;;;22.06;100.00;99085.47;1728523;81;20977;-75
2022/07/15 03:14:53;;;;;;;3.20;2.90;;;;;;;22.07;100.00;99080.08;1730432;81;21021;-74
2022/07/15 03:17:20;;;;;;;4.37;3.55;;;;;;;22.08;100.00;99090.08;1732960;81;21069;-72
2022/07/15 03:19:47;;;;;;;3.85;2.98;;;;;;;22.11;100.00;99092.65;1731346;81;21046;-71
2022/07/15 03:22:13;;;;;;;5.20;3.52;;;;;;;22.12;100.00;99097.07;1731876;81;21039;-73
2022/07/15 03:24:51;;;;;;;4.92;3.12;;;;;;;22.16;100.00;99096.42;1729974;81;20995;-71
2022/07/15 03:27:19;;;;;;;4.08;3.10;;;;;;;22.20;100.00;99103.42;1709434;82;21077;-74
2022/07/15 03:29:45;;;;;;;6.70;4.40;;;;;;;22.25;100.00;99107.20;1726718;81;21021;-75
2022/07/15 03:32:15;;;;;;;3.33;2.62;;;;;;;22.30;100.00;99115.19;1732059;81;21184;-76
2022/07/15 03:34:41;;;;;;;5.15;3.37;;;;;;;22.35;100.00;99123.16;1734272;81;21109;-75
2022/07/15 03:37:08;;;;;;;8.60;3.30;;;;;;;22.38;100.00;99127.95;1735054;81;21019;-77
2022/07/15 03:39:34;;;;;;;3.77;3.20;;;;;;;22.41;100.00;99123.54;1731414;81;20982;-77
2022/07/15 03:42:01;;;;;;;11.25;3.50;;;;;;;22.44;100.00;99121.31;1733733;81;21045;-75
2022/07/15 03:44:28;;;;;;;4.33;3.10;;;;;;;22.42;100.00;99120.91;1732032;81;21481;-74
2022/07/15 03:46:58;;;;;;;5.67;3.08;;;;;;;22.43;100.00;99116.11;1730566;82;21874;-74
2022/07/15 03:49:25;;;;;;;7.00;3.50;;;;;;;22.45;100.00;99107.45;1705696;82;21034;-73
2022/07/15 03:51:52;;;;;;;4.47;3.33;;;;;;;22.45;100.00;99115.10;1732076;81;21073;-79
2022/07/15 03:54:18;;;;;;;7.00;4.30;;;;;;;22.49;100.00;99129.89;1733863;81;21057;-70
2022/07/15 03:56:51;;;;;;;5.25;3.35;;;;;;;22.58;100.00;99134.45;1728696;81;21038;-77
2022/07/15 03:59:21;;;;;;;4.47;3.47;;;;;;;22.60;100.00;99141.05;1732397;81;21260;-75
2022/07/15 04:01:49;;;;;;;4.28;3.35;;;;;;;22.58;100.00;99137.26;1729058;81;21089;-65
2022/07/15 04:04:16;;;;;;;4.40;3.67;;;;;;;22.57;100.00;99128.62;1730257;81;21062;-71
2022/07/15 04:06:45;;;;;;;4.55;3.17;;;;;;;22.58;100.00;99116.80;1734366;80;21019;-74
2022/07/15 04:09:12;;;;;;;6.12;3.47;;;;;;;22.57;100.00;99114.59;1726675;81;21490;-74
2022/07/15 04:11:42;;;;;;;5.58;3.85;;;;;;;22.57;100.00;99117.39;1737849;80;22133;-76
2022/07/15 04:14:13;;;;;;;8.68;3.87;;;;;;;22.53;100.00;99094.19;1739303;80;21038;-75
2022/07/15 04:16:41;;;;;;;3.87;3.37;;;;;;;22.59;100.00;99060.25;1743768;80;21086;-77
2022/07/15 04:19:11;;;;;;;3.77;3.25;;;;;;;22.58;100.00;99054.45;1735292;80;21085;-75
2022/07/15 04:21:38;;;;;;;4.87;3.55;;;;;;;22.58;100.00;99057.27;1738897;80;20994;-74
2022/07/15 04:24:05;;;;;;;5.10;3.12;;;;;;;22.63;100.00;99053.83;1737446;80;21553;-72
2022/07/15 04:26:32;;;;;;;5.37;3.72;;;;;;;22.68;100.00;99051.98;1739628;80;21342;-73
2022/07/15 04:29:00;;;;;;;4.53;3.65;;;;;;;22.67;100.00;99053.21;1737507;80;21065;-74
2022/07/15 04:31:28;;;;;;;4.50;4.00;;;;;;;22.69;100.00;99055.00;1738093;80;21014;-73
2022/07/15 04:33:56;;;;;;;6.83;3.70;;;;;;;22.73;100.00;99062.77;1738382;80;21041;-73
2022/07/15 04:36:28;;;;;;;4.12;3.50;;;;;;;22.78;100.00;99055.90;1736935;80;21119;-73
2022/07/15 04:38:55;;;;;;;5.17;3.77;;;;;;;22.81;100.00;99055.87;1740523;80;21514;-72
2022/07/15 04:41:32;;;;;;;6.85;3.72;;;;;;;22.83;100.00;99056.86;1733338;80;21014;-73
2022/07/15 04:44:02;;;;;;;6.22;3.55;;;;;;;22.90;100.00;99070.03;1739667;80;21092;-74
2022/07/15 04:46:30;;;;;;;5.12;3.77;;;;;;;22.95;100.00;99063.36;1702114;82;20986;-71
2022/07/15 04:51:43;;;;;;;5.28;3.92;;;;;;;23.09;100.00;99086.30;1736834;80;21109;-75
2022/07/15 04:54:19;;;;;;;6.70;4.72;;;;;;;23.16;100.00;99096.67;1734927;80;21089;-74
2022/07/15 04:56:50;;;;;;;6.33;4.00;;;;;;;23.23;100.00;99099.38;1703835;82;21057;-79
2022/07/15 04:59:17;;;;;;;5.85;3.77;;;;;;;23.27;100.00;99090.92;1737324;80;21426;-74
2022/07/15 05:01:44;;;;;;;6.90;3.58;;;;;;;23.29;100.00;99096.92;1745162;80;21104;-73
2022/07/15 05:04:13;;;;;;;10.88;3.83;;;;;;;23.29;100.00;99089.91;1743033;81;21023;-76
2022/07/15 05:06:40;;;;;;;6.30;3.77;;;;;;;23.33;100.00;99092.08;1734326;81;21067;-74
2022/07/15 05:09:07;;;;;;;5.83;3.60;;;;;;;23.35;100.00;99082.59;1700782;82;21185;-71
2022/07/15 05:11:35;;;;;;;3.83;3.27;;;;;;;23.39;100.00;99071.95;1684609;84;21487;-75
2022/07/15 05:14:03;;;;;;;5.03;4.30;;;;;;;23.39;100.00;99059.30;1728047;82;21098;-74
2022/07/15 05:16:30;;;;;;;9.93;4.20;;;;;;;23.42;100.00;99052.87;1699015;83;21113;-74
2022/07/15 05:18:58;;;;;;;7.20;3.40;;;;;;;23.44;100.00;99049.03;1715634;82;21018;-75
2022/07/15 05:21:26;;;;;;;4.78;3.55;;;;;;;23.45;100.00;99037.97;1736218;80;21006;-72
2022/07/15 05:23:54;;;;;;;8.45;4.20;;;;;;;23.47;100.00;99018.67;1739761;80;21036;-74
2022/07/15 05:26:21;;;;;;;5.90;4.53;;;;;;;23.50;100.00;99013.61;1737491;80;21127;-74
2022/07/15 05:28:49;;;;;;;4.97;3.72;;;;;;;23.57;100.00;99012.72;1726340;80;21064;-74
2022/07/15 05:31:16;;;;;;;9.05;3.75;;;;;;;23.61;100.00;99012.05;1733113;80;21038;-73
2022/07/15 05:33:43;;;;;;;8.33;4.00;;;;;;;23.65;100.00;99013.41;1738430;80;21020;-74
2022/07/15 05:36:13;;;;;;;6.78;3.95;;;;;;;23.72;100.00;99013.31;1733921;81;21500;-74
2022/07/15 05:38:41;;;;;;;5.37;4.30;;;;;;;23.76;100.00;98997.81;1738058;80;21133;-74
2022/07/15 05:41:11;;;;;;;5.85;3.85;;;;;;;23.82;100.00;98998.91;1735743;80;21012;-74
2022/07/15 05:43:39;;;;;;;5.47;3.92;;;;;;;23.86;100.00;98996.86;1734036;80;21072;-75
2022/07/15 05:46:07;;;;;;;6.05;4.15;;;;;;;23.90;100.00;98988.37;1696919;84;21018;-74
2022/07/15 05:48:37;;;;;;;5.90;4.75;;;;;;;23.94;100.00;98993.31;1684587;83;21006;-72
2022/07/15 05:51:04;;;;;;;7.62;4.25;;;;;;;24.00;100.00;98983.80;1734541;81;21300;-72
2022/07/15 05:53:36;;;;;;;5.70;4.70;;;;;;;24.07;100.00;98980.88;1732386;80;21038;-72
2022/07/15 05:56:06;;;;;;;5.40;3.85;;;;;;;24.14;100.00;98984.19;1733543;82;21054;-73
2022/07/15 05:58:39;;;;;;;4.90;4.30;;;;;;;24.20;100.00;98986.72;1731647;82;21039;-69
2022/07/15 06:01:06;;;;;;;5.30;4.20;;;;;;;24.27;100.00;98989.42;1744504;80;21031;-75
2022/07/15 06:03:36;;;;;;;8.53;4.53;;;;;;;24.42;100.00;98986.36;1745383;80;21302;-74
2022/07/15 06:06:06;;;;;;;6.12;4.25;;;;;;;24.48;100.00;98981.81;1735969;81;21022;-72
2022/07/15 06:12:03;;;;;;;6.42;3.62;;;;;;;24.60;100.00;98973.36;1734076;81;20993;-75
2022/07/15 06:14:32;;;;;;;5.72;3.98;;;;;;;24.69;100.00;98961.53;1697028;84;21004;-73
2022/07/15 06:16:58;;;;;;;7.03;3.75;;;;;;;24.75;100.00;98961.24;1700702;82;21565;-76
2022/07/15 06:19:25;;;;;;;5.80;3.67;;;;;;;24.87;100.00;98957.59;1736316;80;21042;-72
2022/07/15 06:21:53;;;;;;;7.55;3.67;;;;;;;25.01;100.00;98955.91;1730038;82;21622;-73
2022/07/15 06:24:19;;;;;;;5.47;4.00;;;;;;;25.15;100.00;98946.98;1736238;82;21014;-74
2022/07/15 06:26:46;;;;;;;9.23;3.65;;;;;;;25.28;100.00;98954.19;1733765;82;21037;-75
2022/07/15 06:29:13;;;;;;;6.05;3.75;;;;;;;25.47;100.00;98944.08;1730960;82;21085;-69
2022/07/15 06:31:40;;;;;;;5.87;3.45;;;;;;;25.65;100.00;98949.97;1734241;81;20999;-73
2022/07/15 06:34:07;;;;;;;5.50;4.10;;;;;;;25.82;100.00;98949.98;1733921;82;21517;-73
2022/07/15 06:36:34;;;;;;;10.15;5.08;;;;;;;25.96;100.00;98944.02;1733989;82;21592;-71
2022/07/15 06:39:00;;;;;;;7.28;3.95;;;;;;;26.04;100.00;98946.64;1734255;82;21537;-73
2022/07/15 06:41:31;;;;;;;7.35;4.20;;;;;;;26.27;100.00;98942.05;1733312;81;21062;-76
2022/07/15 06:44:00;;;;;;;6.00;3.55;;;;;;;26.41;100.00;98936.69;1733594;82;21006;-75
2022/07/15 20:06:18;;;;;;;3.85;2.50;;;;;;;20.45;100.00;99563.44;1870193;76;22782;-78
2022/07/15 20:08:50;;;;;;;3.37;2.35;;;;;;;20.49;100.00;99561.46;1833273;77;20951;-80
2022/07/15 20:11:19;;;;;;;3.02;2.35;;;;;;;20.65;100.00;99557.00;1836851;77;20898;-80
2022/07/15 20:13:48;;;;;;;4.33;1.95;;;;;;;20.65;100.00;99548.61;1835601;77;20886;-77
2022/07/15 20:16:16;;;;;;;3.10;2.33;;;;;;;20.78;100.00;99552.47;1833759;78;20945;-68
2022/07/15 20:18:44;;;;;;;4.62;2.00;;;;;;;20.78;100.00;99541.27;1828955;77;20894;-79
2022/07/15 20:21:17;;;;;;;2.55;1.92;;;;;;;20.68;100.00;99541.41;1793109;78;20904;-72
2022/07/15 20:23:44;;;;;;;4.47;2.20;;;;;;;20.64;100.00;99542.78;1836220;78;21115;-73
2022/07/15 20:26:24;;;;;;;10.83;2.03;;;;;;;20.70;100.00;99544.63;1831987;77;20918;-78
2022/07/15 20:28:56;;;;;;;5.65;2.52;;;;;;;20.68;100.00;99537.21;1839317;77;21409;-74
2022/07/15 20:31:24;;;;;;;5.28;2.90;;;;;;;20.72;100.00;99540.85;1833480;77;20896;-78
2022/07/15 20:33:58;;;;;;;10.93;2.75;;;;;;;20.63;100.00;99539.79;1833160;77;20993;-76
2022/07/15 20:36:25;;;;;;;4.92;2.12;;;;;;;20.49;100.00;99537.68;1822165;78;21464;-76
2022/07/15 20:38:54;;;;;;;6.15;2.33;;;;;;;20.48;100.00;99540.28;1835122;77;21457;-75
2022/07/15 20:41:33;;;;;;;7.50;2.10;;;;;;;20.42;100.00;99539.83;1841035;77;21587;-77
2022/07/15 20:44:02;;;;;;;7.42;2.02;;;;;;;20.33;100.00;99549.74;1833312;77;20921;-75
2022/07/15 20:46:35;;;;;;;4.65;1.75;;;;;;;20.29;100.00;99546.33;1830630;78;21486;-78
2022/07/15 20:49:01;;;;;;;10.40;2.50;;;;;;;20.49;100.00;99553.07;1833347;78;21042;-77
2022/07/15 20:51:32;;;;;;;7.05;2.15;;;;;;;20.49;100.00;99550.89;1836866;77;20968;-78
2022/07/15 20:54:04;;;;;;;10.88;2.65;;;;;;;20.48;100.00;99550.66;1827966;77;21064;-72
2022/07/15 20:56:32;;;;;;;7.62;2.40;;;;;;;20.41;100.00;99543.02;1834337;77;20960;-78
2022/07/15 20:58:58;;;;;;;4.55;2.10;;;;;;;20.37;100.00;99549.97;1838185;77;20905;-72
2022/07/15 21:01:30;;;;;;;5.70;2.05;;;;;;;20.31;100.00;99546.75;1836471;77;21102;-70
2022/07/15 21:04:08;;;;;;;6.95;2.12;;;;;;;20.27;100.00;99543.69;1830420;77;20953;-76
2022/07/15 21:06:35;;;;;;;2.77;2.10;;;;;;;20.27;100.00;99547.30;1834669;77;20836;-77
2022/07/15 21:09:01;;;;;;;8.68;2.95;;;;;;;20.29;100.00;99552.50;1834595;77;20944;-77
2022/07/15 21:11:32;;;;;;;3.77;2.50;;;;;;;20.42;100.00;99539.05;1839629;77;21525;-75
2022/07/15 21:14:01;;;;;;;4.33;1.85;;;;;;;20.31;100.00;99541.73;1837596;77;20902;-77
2022/07/15 21:16:30;;;;;;;5.17;2.30;;;;;;;20.15;100.00;99548.39;1841009;77;20825;-77
2022/07/15 21:18:58;;;;;;;6.17;2.22;;;;;;;20.19;100.00;99540.84;1837778;77;20945;-75
2022/07/15 21:21:25;;;;;;;7.28;2.30;;;;;;;20.00;100.00;99536.23;1831172;77;20858;-75
2022/07/15 21:23:52;;;;;;;4.30;2.95;;;;;;;19.95;100.00;99546.38;1843417;77;20909;-77
2022/07/15 21:29:12;;;;;;;4.87;2.37;;;;;;;20.09;100.00;99547.14;1845051;77;20862;-78
2022/07/15 21:31:43;;;;;;;3.72;2.10;;;;;;;19.93;100.00;99549.55;1787195;77;20967;-76
2022/07/15 21:34:13;;;;;;;4.22;2.85;;;;;;;19.78;100.00;99555.59;1835913;77;20889;-74
2022/07/15 21:36:44;;;;;;;6.95;2.90;;;;;;;19.90;100.00;99558.71;1838096;77;21002;-73
2022/07/15 21:39:22;;;;;;;6.03;3.00;;;;;;;19.86;100.00;99561.27;1819966;77;20937;-76
2022/07/15 21:41:49;;;;;;;7.60;3.08;;;;;;;19.73;100.00;99561.52;1828657;77;21017;-77
2022/07/15 21:44:16;;;;;;;6.30;2.62;;;;;;;19.68;100.00;99571.06;1820732;77;20889;-75
2022/07/15 21:46:43;;;;;;;5.12;2.85;;;;;;;19.57;100.00;99576.50;1814249;78;20937;-77
2022/07/15 21:49:11;;;;;;;12.10;2.62;;;;;;;19.46;100.00;99569.98;1821286;78;20914;-76
2022/07/15 21:51:37;;;;;;;4.65;2.58;;;;;;;19.62;100.00;99572.56;1813140;78;21077;-76
2022/07/15 21:54:06;;;;;;;5.67;2.72;;;;;;;19.59;100.00;99583.11;1819042;78;20851;-78
2022/07/15 21:56:33;;;;;;;8.33;2.60;;;;;;;19.57;100.00;99585.47;1821827;78;21548;-77
2022/07/15 21:59:05;;;;;;;8.43;2.90;;;;;;;19.50;100.00;99588.98;1817386;78;20953;-77
2022/07/15 22:01:32;;;;;;;8.88;2.95;;;;;;;19.50;100.00;99586.19;1829548;78;20858;-70
2022/07/15 22:03:59;;;;;;;7.37;3.20;;;;;;;19.49;100.00;99587.38;1817241;78;21806;-74
2022/07/15 22:06:30;;;;;;;5.50;2.98;;;;;;;19.45;100.00;99588.73;1827237;78;20976;-70
2022/07/15 22:09:01;;;;;;;7.08;2.83;;;;;;;19.29;100.00;99586.72;1810073;78;21513;-76
2022/07/15 22:11:34;;;;;;;7.60;2.55;;;;;;;19.23;100.00;99596.63;1792574;78;21016;-75
2022/07/15 22:14:00;;;;;;;6.47;2.60;;;;;;;19.11;100.00;99594.25;1820823;78;20883;-78
2022/07/15 22:16:27;;;;;;;11.25;2.60;;;;;;;19.00;100.00;99601.06;1823901;78;21162;-75
2022/07/15 22:18:54;;;;;;;8.15;3.02;;;;;;;19.08;100.00;99601.38;1804994;78;20952;-74
2022/07/15 22:21:26;;;;;;;5.15;2.55;;;;;;;19.08;100.00;99596.37;1812659;78;20892;-74
2022/07/15 22:23:57;;;;;;;5.10;2.67;;;;;;;19.04;100.00;99596.94;1830306;77;21394;-76
2022/07/15 22:48:04;;;;;;;6.05;3.00;;;;;;;18.90;100.00;99619.84;1873008;76;22841;-74
2022/07/15 22:50:31;;;;;;;6.03;3.42;;;;;;;18.71;100.00;99627.91;1841785;78;20967;-76
2022/07/15 22:52:58;;;;;;;8.03;3.45;;;;;;;18.86;100.00;99626.77;1842200;78;21476;-75
2022/07/15 22:55:25;;;;;;;5.67;3.22;;;;;;;18.95;100.00;99623.72;1841718;77;20909;-76
2022/07/15 22:57:53;;;;;;;4.83;3.20;;;;;;;19.09;100.00;99625.89;1841634;78;20861;-76
2022/07/15 23:00:20;;;;;;;6.50;2.80;;;;;;;18.95;100.00;99630.08;1842029;78;20909;-73
2022/07/15 23:02:46;;;;;;;6.35;3.30;;;;;;;18.89;100.00;99633.56;1841693;78;20917;-76
2022/07/15 23:05:14;;;;;;;3.80;2.45;;;;;;;18.87;100.00;99635.95;1842026;78;21476;-75
2022/07/15 23:07:40;;;;;;;5.45;2.77;;;;;;;18.91;100.00;99635.40;1841964;78;20857;-73
2022/07/15 23:10:08;;;;;;;12.10;3.10;;;;;;;18.81;100.00;99629.87;1841747;78;21026;-76
2022/07/15 23:12:35;;;;;;;4.08;2.80;;;;;;;18.79;100.00;99635.83;1841689;78;20858;-74
2022/07/15 23:15:01;;;;;;;9.00;3.67;;;;;;;18.80;100.00;99636.64;1841756;78;20982;-76
2022/07/15 23:17:28;;;;;;;5.28;2.65;;;;;;;18.66;100.00;99634.41;1841608;78;21126;-75
2022/07/15 23:19:54;;;;;;;4.10;2.47;;;;;;;18.62;100.00;99638.53;1841703;78;20846;-76
2022/07/15 23:22:23;;;;;;;6.70;2.60;;;;;;;18.59;100.00;99638.70;1811719;78;20970;-74
2022/07/15 23:24:51;;;;;;;10.72;3.20;;;;;;;18.77;100.00;99638.75;1842031;78;21523;-75
2022/07/15 23:27:18;;;;;;;5.08;2.92;;;;;;;18.83;100.00;99633.09;1841686;78;20934;-73
2022/07/15 23:29:45;;;;;;;7.10;2.85;;;;;;;18.87;100.00;99635.34;1841652;78;21137;-73
2022/07/15 23:32:11;;;;;;;8.30;2.95;;;;;;;18.91;100.00;99637.61;1841230;78;20944;-71
2022/07/15 23:34:38;;;;;;;8.08;3.30;;;;;;;18.91;100.00;99634.81;1841589;78;20929;-73
2022/07/15 23:37:04;;;;;;;11.03;2.30;;;;;;;18.89;100.00;99632.98;1841645;78;20915;-73
2022/07/15 23:39:32;;;;;;;10.63;3.12;;;;;;;18.94;100.00;99633.25;1841849;78;20971;-73
2022/07/15 23:42:00;;;;;;;7.30;2.85;;;;;;;19.01;100.00;99632.55;1811595;78;21049;-72
2022/07/15 23:44:27;;;;;;;4.42;2.80;;;;;;;19.03;100.00;99630.20;1841643;78;20828;-72
2022/07/15 23:46:54;;;;;;;7.03;3.10;;;;;;;18.96;100.00;99626.13;1842531;77;21451;-74
2022/07/15 23:49:21;;;;;;;4.85;3.12;;;;;;;18.88;100.00;99631.39;1844081;77;21448;-73
2022/07/15 23:51:47;;;;;;;7.87;2.95;;;;;;;18.80;100.00;99633.23;1844059;77;20930;-69
2022/07/15 23:54:18;;;;;;;6.30;2.92;;;;;;;18.68;100.00;99633.45;1844133;77;21067;-73
2022/07/15 23:56:44;;;;;;;4.90;2.62;;;;;;;18.64;100.00;99636.18;1843952;77;20851;-73
